Time;durP1;ratioP1;P1;durP2;ratioP2;P2;SDS_P1;SDS_P2;PMS_P1;PMS_P2;Temp;Humidity;BMP_temperature;BMP_pressure;BME280_temperature;BME280_humidity;BME280_pressure;Samples;Min_cycle;Max_cycle;Signal;HPM_P1;HPM_P2
2023/08/15 00:00:34;;;;;;;29.30;26.60;;;16.00;99.90;;;;;;4956025;28;20131;-79
2023/08/15 00:03:06;;;;;;;34.72;31.45;;;16.00;99.90;;;;;;4955950;28;20039;-79
2023/08/15 00:05:37;;;;;;;26.27;23.85;;;16.00;99.90;;;;;;4954910;28;20121;-79
2023/08/15 00:08:10;;;;;;;31.95;28.95;;;16.00;99.90;;;;;;4939174;28;20490;-79
2023/08/15 00:10:47;;;;;;;39.17;35.78;;;16.00;99.90;;;;;;4940269;28;20125;-78
2023/08/15 00:13:13;;;;;;;35.47;32.40;;;16.00;99.90;;;;;;4924449;28;20043;-78
2023/08/15 00:15:38;;;;;;;35.63;32.30;;;16.00;99.90;;;;;;4938413;28;20113;-79
2023/08/15 00:18:09;;;;;;;41.22;37.65;;;16.00;99.90;;;;;;4954389;28;20039;-79
2023/08/15 00:20:35;;;;;;;34.40;31.33;;;16.10;99.90;;;;;;4939632;28;20038;-78
2023/08/15 00:23:01;;;;;;;34.40;31.48;;;16.10;99.90;;;;;;4939663;28;20125;-79
2023/08/15 00:25:29;;;;;;;33.95;30.92;;;16.10;99.90;;;;;;4938932;28;20481;-79
2023/08/15 00:27:58;;;;;;;33.88;31.17;;;16.20;99.90;;;;;;4936128;29;20648;-79
2023/08/15 00:30:24;;;;;;;30.23;27.65;;;16.10;99.90;;;;;;4936426;29;20050;-78
2023/08/15 00:32:52;;;;;;;30.05;27.45;;;16.20;99.90;;;;;;4936689;29;20046;-78
2023/08/15 00:35:17;;;;;;;34.80;31.85;;;16.10;99.90;;;;;;4963036;28;20393;-78
2023/08/15 00:37:46;;;;;;;37.75;34.45;;;16.10;99.90;;;;;;4963879;28;20034;-78
2023/08/15 00:40:12;;;;;;;33.08;30.38;;;16.20;99.90;;;;;;4939626;28;20050;-79
2023/08/15 00:42:40;;;;;;;37.40;34.33;;;16.10;99.90;;;;;;4958063;28;20050;-78
2023/08/15 00:45:10;;;;;;;63.10;48.20;;;16.20;99.90;;;;;;4959005;28;20119;-78
2023/08/15 00:47:37;;;;;;;37.58;34.38;;;16.20;99.90;;;;;;4939970;28;20043;-78
2023/08/15 00:50:09;;;;;;;37.28;34.15;;;16.20;99.90;;;;;;4958454;28;20138;-78
2023/08/15 00:52:39;;;;;;;35.58;32.47;;;16.20;99.90;;;;;;4959179;28;20039;-78
2023/08/15 00:55:10;;;;;;;40.97;37.47;;;16.30;99.90;;;;;;4958728;28;20399;-80
2023/08/15 00:57:38;;;;;;;40.85;37.45;;;16.30;99.90;;;;;;4976210;28;20043;-79
2023/08/15 01:00:05;;;;;;;37.50;33.78;;;16.30;99.90;;;;;;4958914;28;20411;-78
2023/08/15 01:02:31;;;;;;;36.47;33.28;;;16.30;99.90;;;;;;4943053;28;20047;-78
2023/08/15 01:04:59;;;;;;;39.53;36.13;;;16.30;99.90;;;;;;4943335;28;20584;-78
2023/08/15 01:07:25;;;;;;;36.05;32.78;;;16.30;99.90;;;;;;4930184;28;20043;-79
2023/08/15 01:09:51;;;;;;;39.22;35.72;;;16.20;99.90;;;;;;4941923;28;20045;-78
2023/08/15 01:12:29;;;;;;;34.45;31.15;;;16.20;99.90;;;;;;4943111;28;20030;-78
2023/08/15 01:15:01;;;;;;;47.67;43.25;;;16.20;99.90;;;;;;4950750;28;20039;-79
2023/08/15 01:17:56;;;;;;;36.63;33.53;;;16.30;99.90;;;;;;4941838;28;20035;-79
2023/08/15 01:20:30;;;;;;;52.50;47.47;;;16.30;99.90;;;;;;4942790;28;20493;-79
2023/08/15 01:23:00;;;;;;;37.88;34.45;;;16.30;99.90;;;;;;4959043;28;20035;-79
2023/08/15 01:25:27;;;;;;;38.65;35.13;;;16.30;99.90;;;;;;4958883;28;20130;-81
2023/08/15 01:27:59;;;;;;;44.40;40.65;;;16.30;99.90;;;;;;4939810;28;20050;-78
2023/08/15 01:30:27;;;;;;;37.67;34.78;;;16.30;99.90;;;;;;4959584;28;20046;-79
2023/08/15 01:33:02;;;;;;;52.08;47.35;;;16.30;99.90;;;;;;4959341;28;20043;-79
2023/08/15 01:35:40;;;;;;;41.63;37.92;;;16.30;99.90;;;;;;4958467;28;20503;-81
2023/08/15 01:38:42;;;;;;;46.38;42.35;;;16.30;99.90;;;;;;4950541;28;20031;-80
2023/08/15 01:41:10;;;;;;;40.30;37.00;;;16.30;99.90;;;;;;4947742;28;20047;-78
2023/08/15 01:43:37;;;;;;;41.83;38.20;;;16.40;99.90;;;;;;4958155;28;20639;-79
2023/08/15 01:46:04;;;;;;;40.55;37.10;;;16.30;99.90;;;;;;4957538;28;20047;-79
2023/08/15 01:48:30;;;;;;;46.72;42.45;;;16.40;99.90;;;;;;4956724;28;20426;-79
2023/08/15 01:50:56;;;;;;;40.38;37.17;;;16.40;99.90;;;;;;4942156;28;20043;-79
2023/08/15 01:53:22;;;;;;;49.75;45.28;;;16.50;99.90;;;;;;4958498;28;20097;-79
2023/08/15 01:55:48;;;;;;;49.17;44.55;;;16.50;99.90;;;;;;4952260;28;20038;-79
2023/08/15 01:58:14;;;;;;;45.65;41.67;;;16.50;99.90;;;;;;4949457;28;20117;-79
2023/08/15 02:00:42;;;;;;;53.85;48.70;;;16.50;99.90;;;;;;4957696;28;20082;-79
2023/08/15 02:03:08;;;;;;;42.25;38.58;;;16.50;99.90;;;;;;4956617;28;20567;-79
2023/08/15 02:05:36;;;;;;;42.22;38.63;;;16.50;99.90;;;;;;4960258;28;20070;-79
2023/08/15 02:08:02;;;;;;;55.03;49.95;;;16.50;99.90;;;;;;4957245;28;20039;-78
2023/08/15 02:10:28;;;;;;;44.63;40.75;;;16.50;99.90;;;;;;4957571;28;20560;-79
2023/08/15 02:12:54;;;;;;;42.88;39.17;;;16.60;99.90;;;;;;4957448;28;20042;-79
2023/08/15 02:15:19;;;;;;;48.40;44.03;;;16.60;99.90;;;;;;4949253;28;20043;-79
2023/08/15 02:17:45;;;;;;;42.03;38.63;;;16.60;99.90;;;;;;4944246;28;20034;-79
2023/08/15 02:20:14;;;;;;;43.35;39.63;;;16.60;99.90;;;;;;4959982;28;20043;-80
2023/08/15 02:22:50;;;;;;;46.08;41.88;;;16.60;99.90;;;;;;4957709;28;20053;-79
2023/08/15 02:25:19;;;;;;;41.80;38.22;;;16.70;99.90;;;;;;4956786;28;20086;-78
2023/08/15 02:27:45;;;;;;;60.58;54.67;;;16.60;99.90;;;;;;4960441;28;20140;-79
2023/08/15 02:30:13;;;;;;;45.53;41.53;;;16.60;99.90;;;;;;4966910;28;20041;-79
2023/08/15 02:32:42;;;;;;;57.63;52.30;;;16.60;99.90;;;;;;4976530;28;20065;-78
2023/08/15 02:35:08;;;;;;;39.22;35.65;;;16.60;99.90;;;;;;4963573;28;20041;-79
2023/08/15 02:37:34;;;;;;;46.08;42.17;;;16.60;99.90;;;;;;4956044;28;20121;-80
2023/08/15 02:40:00;;;;;;;41.67;38.20;;;16.60;99.90;;;;;;4964000;28;20097;-79
2023/08/15 02:42:26;;;;;;;48.97;44.75;;;16.70;99.90;;;;;;4992160;28;20394;-80
2023/08/15 02:44:53;;;;;;;42.65;39.20;;;16.60;99.90;;;;;;4959795;28;20078;-80
2023/08/15 02:47:19;;;;;;;50.60;45.83;;;16.60;99.90;;;;;;4969997;28;20117;-79
2023/08/15 02:49:45;;;;;;;42.42;38.90;;;16.60;99.90;;;;;;4955587;28;20034;-79
2023/08/15 02:52:11;;;;;;;43.63;39.78;;;16.60;99.90;;;;;;4956734;28;20118;-79
2023/08/15 02:54:37;;;;;;;40.72;37.42;;;16.60;99.90;;;;;;4956195;28;20051;-79
2023/08/15 02:57:03;;;;;;;60.53;54.28;;;16.60;99.90;;;;;;4951664;28;20057;-79
2023/08/15 02:59:29;;;;;;;56.30;51.13;;;16.60;99.90;;;;;;4956271;28;20489;-79
2023/08/15 03:01:54;;;;;;;45.65;41.88;;;16.60;99.90;;;;;;4956645;28;20042;-80
2023/08/15 03:04:20;;;;;;;53.70;48.85;;;16.60;99.90;;;;;;4955741;28;20486;-79
2023/08/15 03:06:49;;;;;;;44.55;40.67;;;16.70;99.90;;;;;;4954842;28;20548;-79
2023/08/15 03:09:16;;;;;;;54.05;49.08;;;16.70;99.90;;;;;;4963015;28;20545;-79
2023/08/15 03:11:42;;;;;;;62.70;56.83;;;16.80;99.90;;;;;;4956482;28;20038;-79
2023/08/15 03:14:11;;;;;;;48.80;44.28;;;16.90;99.90;;;;;;4955693;28;20042;-79
2023/08/15 03:16:36;;;;;;;50.03;45.17;;;16.90;99.90;;;;;;4954969;28;20501;-79
2023/08/15 03:19:02;;;;;;;44.92;40.95;;;17.00;99.90;;;;;;4955411;28;20038;-79
2023/08/15 03:21:30;;;;;;;50.70;46.00;;;17.00;99.90;;;;;;4966429;28;20042;-79
2023/08/15 03:24:07;;;;;;;55.47;50.15;;;17.00;99.90;;;;;;4975365;28;20052;-79
2023/08/15 03:26:33;;;;;;;44.88;40.95;;;17.10;99.90;;;;;;4967037;28;20497;-79
2023/08/15 03:29:02;;;;;;;39.53;35.90;;;17.10;99.90;;;;;;4955764;28;20116;-79
2023/08/15 03:31:30;;;;;;;51.28;45.85;;;17.20;99.90;;;;;;4966188;28;20030;-79
2023/08/15 03:34:04;;;;;;;44.78;39.45;;;17.20;99.90;;;;;;4974124;28;20054;-79
2023/08/15 03:36:35;;;;;;;42.55;38.33;;;17.20;99.90;;;;;;4966873;28;20045;-79
2023/08/15 03:39:01;;;;;;;32.20;29.30;;;17.20;99.90;;;;;;4955996;28;20497;-79
2023/08/15 03:41:26;;;;;;;35.67;32.15;;;17.20;99.90;;;;;;4955826;28;20490;-79
2023/08/15 03:43:52;;;;;;;30.48;27.45;;;17.20;99.90;;;;;;4955373;28;20047;-79
2023/08/15 03:46:21;;;;;;;33.38;30.27;;;17.20;99.90;;;;;;4944423;28;20540;-79
2023/08/15 03:48:47;;;;;;;32.97;29.88;;;17.20;99.90;;;;;;4954514;28;20047;-79
2023/08/15 03:51:13;;;;;;;34.58;31.50;;;17.20;99.90;;;;;;4955910;28;20034;-79
2023/08/15 03:53:38;;;;;;;30.98;27.98;;;17.20;99.90;;;;;;4955948;28;20397;-79
2023/08/15 03:56:04;;;;;;;30.88;28.10;;;17.20;99.90;;;;;;4953801;28;20142;-79
2023/08/15 03:58:33;;;;;;;31.33;28.52;;;17.20;99.90;;;;;;4955144;28;20070;-80
2023/08/15 04:01:01;;;;;;;32.22;29.33;;;17.20;99.90;;;;;;4962466;28;20092;-79
2023/08/15 04:03:30;;;;;;;27.05;24.75;;;17.20;99.90;;;;;;4974855;28;20057;-79
2023/08/15 04:05:58;;;;;;;34.20;31.02;;;17.10;99.90;;;;;;4962201;28;20046;-79
2023/08/15 04:08:24;;;;;;;32.97;30.10;;;17.10;99.90;;;;;;4939109;28;20407;-79
2023/08/15 04:10:52;;;;;;;27.98;25.30;;;17.10;99.90;;;;;;4954536;28;20050;-79
2023/08/15 04:13:23;;;;;;;25.80;23.30;;;17.10;99.90;;;;;;4974787;28;20054;-79
2023/08/15 04:15:52;;;;;;;26.38;23.88;;;17.20;99.90;;;;;;4974674;28;20046;-80
2023/08/15 04:18:18;;;;;;;25.80;23.50;;;17.20;99.90;;;;;;4959133;28;20151;-79
2023/08/15 04:20:44;;;;;;;27.63;24.80;;;17.20;99.90;;;;;;4959435;28;20043;-79
2023/08/15 04:23:13;;;;;;;25.35;22.80;;;17.20;99.90;;;;;;4959312;28;20050;-79
2023/08/15 04:25:39;;;;;;;31.65;28.27;;;17.20;99.90;;;;;;4955812;28;20049;-78
2023/08/15 04:28:05;;;;;;;31.73;28.70;;;17.20;99.90;;;;;;4960031;28;20035;-79
2023/08/15 04:30:31;;;;;;;30.98;27.85;;;17.20;99.90;;;;;;4960505;28;20038;-80
2023/08/15 04:33:00;;;;;;;27.02;24.30;;;17.20;99.90;;;;;;4959174;28;20046;-79
2023/08/15 04:35:27;;;;;;;24.45;22.15;;;17.10;99.90;;;;;;4944328;28;20045;-79
2023/08/15 04:37:53;;;;;;;21.58;19.58;;;17.20;99.90;;;;;;4966938;28;20030;-78
2023/08/15 04:40:40;;;;;;;24.75;22.30;;;17.20;99.90;;;;;;4960228;28;20189;-79
2023/08/15 04:43:09;;;;;;;21.08;18.92;;;17.10;99.90;;;;;;4959058;28;20078;-79
2023/08/15 04:45:40;;;;;;;25.25;22.85;;;17.10;99.90;;;;;;4957736;28;20045;-78
2023/08/15 04:48:08;;;;;;;26.30;21.23;;;17.00;99.90;;;;;;4951931;28;20039;-78
2023/08/15 04:50:33;;;;;;;23.48;21.05;;;17.00;99.90;;;;;;4965155;28;20042;-79
2023/08/15 04:53:02;;;;;;;20.73;18.63;;;16.90;99.90;;;;;;4958934;28;20493;-79
2023/08/15 04:55:28;;;;;;;23.38;20.98;;;17.00;99.90;;;;;;4967911;28;20490;-79
2023/08/15 04:57:56;;;;;;;24.27;21.70;;;16.90;99.90;;;;;;4952314;28;20089;-79
2023/08/15 05:00:22;;;;;;;19.65;17.65;;;16.90;99.90;;;;;;4958435;28;20054;-79
2023/08/15 05:02:48;;;;;;;22.73;20.52;;;16.90;99.90;;;;;;4956549;28;20425;-78
2023/08/15 05:05:15;;;;;;;26.27;21.27;;;16.90;99.90;;;;;;4978333;28;20104;-79
2023/08/15 05:07:41;;;;;;;21.60;19.30;;;16.90;99.90;;;;;;4959342;28;20047;-78
2023/08/15 05:10:08;;;;;;;18.98;17.08;;;16.90;99.90;;;;;;4938722;28;20046;-79
2023/08/15 05:12:33;;;;;;;19.02;17.02;;;16.80;99.90;;;;;;4958383;28;20070;-79
2023/08/15 05:14:59;;;;;;;19.67;17.45;;;16.80;99.90;;;;;;4942711;28;20133;-78
2023/08/15 05:17:32;;;;;;;19.92;17.83;;;16.80;99.90;;;;;;4957562;28;20486;-79
2023/08/15 05:19:58;;;;;;;20.23;18.13;;;16.80;99.90;;;;;;4942713;28;20046;-78
2023/08/15 05:22:23;;;;;;;17.08;14.95;;;16.80;99.90;;;;;;4942465;28;20050;-78
2023/08/15 05:24:49;;;;;;;19.63;17.52;;;16.70;99.90;;;;;;4940854;28;20046;-79
2023/08/15 05:27:15;;;;;;;18.95;17.05;;;16.70;99.90;;;;;;4941197;28;20053;-78
2023/08/15 05:29:43;;;;;;;21.00;17.52;;;16.70;99.90;;;;;;4977264;28;20117;-79
2023/08/15 05:32:15;;;;;;;18.13;16.33;;;16.70;99.90;;;;;;4956086;28;20035;-78
2023/08/15 05:34:41;;;;;;;23.50;19.33;;;16.80;99.90;;;;;;4956620;28;20042;-78
2023/08/15 05:37:07;;;;;;;19.48;17.48;;;16.80;99.90;;;;;;4949580;28;20494;-79
2023/08/15 05:39:33;;;;;;;18.98;16.98;;;16.80;99.90;;;;;;4965693;28;20039;-79
2023/08/15 05:41:59;;;;;;;19.13;17.33;;;16.80;99.90;;;;;;4954702;28;20039;-78
2023/08/15 05:44:24;;;;;;;22.15;19.23;;;16.70;99.90;;;;;;4957541;28;20338;-78
2023/08/15 05:46:50;;;;;;;23.25;18.98;;;16.70;99.90;;;;;;4956731;28;20039;-78
2023/08/15 05:49:19;;;;;;;18.98;15.63;;;16.70;99.90;;;;;;4935564;28;20074;-79
2023/08/15 05:51:45;;;;;;;15.77;13.98;;;16.70;99.90;;;;;;4960223;28;20043;-79
2023/08/15 05:54:11;;;;;;;19.02;15.50;;;16.70;99.90;;;;;;4952263;28;20161;-78
2023/08/15 05:56:36;;;;;;;18.00;15.57;;;16.70;99.90;;;;;;4957445;28;20483;-77
2023/08/15 05:59:02;;;;;;;17.10;15.27;;;16.70;99.90;;;;;;4964641;28;20045;-78
2023/08/15 06:01:33;;;;;;;17.13;14.57;;;16.70;99.90;;;;;;4960138;28;20046;-76
2023/08/15 06:04:04;;;;;;;16.38;13.05;;;16.80;99.90;;;;;;4962568;28;20234;-76
2023/08/15 06:06:42;;;;;;;16.65;12.93;;;16.70;99.90;;;;;;4961883;28;20497;-77
2023/08/15 06:09:12;;;;;;;16.45;12.20;;;16.70;99.90;;;;;;4976690;28;20125;-76
2023/08/15 06:11:46;;;;;;;15.68;12.68;;;16.90;99.90;;;;;;4961845;28;20394;-77
2023/08/15 06:14:12;;;;;;;16.73;13.15;;;16.90;99.90;;;;;;4976944;28;20046;-77
2023/08/15 06:16:46;;;;;;;15.38;12.55;;;17.00;99.90;;;;;;4967811;28;20058;-77
2023/08/15 06:19:21;;;;;;;20.42;14.25;;;17.00;99.90;;;;;;4960421;28;20096;-77
2023/08/15 06:21:48;;;;;;;17.10;15.02;;;17.10;99.90;;;;;;4977236;28;20335;-77
2023/08/15 06:24:25;;;;;;;15.88;14.00;;;17.10;99.90;;;;;;4976834;28;20046;-77
2023/08/15 06:26:51;;;;;;;18.48;13.73;;;17.30;99.90;;;;;;4961764;28;20046;-77
2023/08/15 06:29:17;;;;;;;20.25;16.58;;;17.40;99.90;;;;;;4959564;28;20042;-77
2023/08/15 06:31:43;;;;;;;18.02;14.77;;;17.40;99.90;;;;;;4940502;28;20097;-76
2023/08/15 06:34:09;;;;;;;18.33;13.63;;;17.40;99.90;;;;;;4982092;28;20038;-76
2023/08/15 06:36:34;;;;;;;15.50;11.35;;;17.60;99.90;;;;;;4964519;28;20047;-76
2023/08/15 06:39:00;;;;;;;20.98;13.90;;;17.70;99.90;;;;;;4955835;28;20517;-76
2023/08/15 06:41:26;;;;;;;15.25;10.98;;;17.80;99.90;;;;;;4954571;28;20247;-77
2023/08/15 06:43:52;;;;;;;13.90;10.98;;;17.90;99.90;;;;;;4968632;28;20096;-76
2023/08/15 06:46:17;;;;;;;17.45;10.55;;;17.90;99.90;;;;;;4966478;28;20035;-76
2023/08/15 06:48:43;;;;;;;17.25;12.00;;;17.90;99.90;;;;;;4956254;28;20171;-76
2023/08/15 06:51:09;;;;;;;19.15;13.65;;;18.00;99.90;;;;;;4956593;28;20041;-77
2023/08/15 06:53:35;;;;;;;17.85;12.00;;;18.00;99.90;;;;;;4956196;28;20039;-77
2023/08/15 06:56:00;;;;;;;17.35;11.57;;;18.10;99.90;;;;;;4951431;28;20058;-77
2023/08/15 06:58:26;;;;;;;16.23;10.75;;;18.20;99.90;;;;;;4971970;28;20392;-77
2023/08/15 07:00:52;;;;;;;16.30;11.40;;;18.30;99.90;;;;;;4968181;28;20053;-77
2023/08/15 07:03:18;;;;;;;26.17;15.65;;;18.40;99.90;;;;;;4956043;28;20035;-78
2023/08/15 07:05:45;;;;;;;20.08;13.95;;;18.40;99.90;;;;;;4960795;28;20030;-77
2023/08/15 07:08:13;;;;;;;24.30;15.20;;;18.60;99.90;;;;;;4974999;28;20038;-78
2023/08/15 07:10:41;;;;;;;15.07;12.00;;;18.90;99.90;;;;;;4970713;28;20045;-78
2023/08/15 07:13:07;;;;;;;15.43;13.05;;;19.00;99.90;;;;;;4991694;28;20085;-79
2023/08/15 07:15:47;;;;;;;18.17;14.30;;;19.10;99.90;;;;;;4975006;28;20061;-78
2023/08/15 07:18:23;;;;;;;19.58;13.60;;;19.40;99.90;;;;;;4975752;28;20030;-78
2023/08/15 07:20:57;;;;;;;17.05;13.55;;;19.40;99.90;;;;;;4968291;28;20031;-78
2023/08/15 07:23:23;;;;;;;15.32;13.25;;;19.60;99.90;;;;;;4974850;28;20049;-78
2023/08/15 07:25:51;;;;;;;21.30;13.70;;;19.70;99.90;;;;;;4975461;28;20386;-78
2023/08/15 07:28:19;;;;;;;19.30;14.20;;;19.80;99.90;;;;;;4970084;28;20485;-77
2023/08/15 07:30:45;;;;;;;17.63;13.63;;;19.80;99.90;;;;;;4974987;28;20133;-78
2023/08/15 07:33:17;;;;;;;18.52;13.75;;;19.90;99.90;;;;;;4975347;28;20125;-78
2023/08/15 07:35:43;;;;;;;19.73;14.77;;;20.00;99.90;;;;;;4975128;28;20129;-79
2023/08/15 07:38:09;;;;;;;20.67;14.50;;;20.00;99.90;;;;;;4964403;28;20224;-78
2023/08/15 07:40:37;;;;;;;19.92;15.32;;;20.10;99.90;;;;;;4974884;28;20121;-78
2023/08/15 07:43:03;;;;;;;17.65;13.38;;;20.20;99.90;;;;;;4975071;28;20125;-77
2023/08/15 07:45:29;;;;;;;17.60;14.18;;;20.30;99.90;;;;;;4992709;28;20050;-78
2023/08/15 07:47:58;;;;;;;17.65;15.20;;;20.30;99.90;;;;;;4974832;28;20049;-78
2023/08/15 07:50:26;;;;;;;17.63;13.50;;;20.20;99.90;;;;;;4974591;28;20053;-78
2023/08/15 07:52:53;;;;;;;15.05;13.35;;;20.30;99.90;;;;;;4970045;28;20038;-80
2023/08/15 07:55:22;;;;;;;19.35;13.85;;;20.30;99.90;;;;;;4976032;28;20074;-79
2023/08/15 07:57:51;;;;;;;15.48;11.85;;;20.50;99.90;;;;;;4977705;28;20039;-79
2023/08/15 08:00:19;;;;;;;14.27;12.82;;;20.60;99.90;;;;;;4978080;28;20485;-78
2023/08/15 08:02:47;;;;;;;16.15;13.68;;;20.70;99.90;;;;;;4971468;28;20042;-79
2023/08/15 08:05:16;;;;;;;16.83;13.38;;;20.80;99.90;;;;;;4976831;28;20041;-79
2023/08/15 08:07:43;;;;;;;11.90;9.93;;;20.90;99.90;;;;;;4967529;28;20094;-80
2023/08/15 08:10:12;;;;;;;15.32;11.80;;;20.80;99.90;;;;;;4958619;28;20516;-80
2023/08/15 08:12:40;;;;;;;12.73;11.52;;;20.70;99.90;;;;;;4977299;28;20456;-79
2023/08/15 08:15:06;;;;;;;13.63;11.25;;;20.60;99.90;;;;;;4977567;28;20121;-79
2023/08/15 08:17:32;;;;;;;16.33;14.77;;;20.60;99.90;;;;;;4972964;28;20034;-80
2023/08/15 08:20:00;;;;;;;15.32;13.82;;;20.60;99.90;;;;;;4976485;28;20512;-80
2023/08/15 08:22:29;;;;;;;14.90;13.48;;;20.60;99.90;;;;;;4976293;28;20057;-79
2023/08/15 08:24:57;;;;;;;14.77;13.27;;;20.70;99.90;;;;;;4976826;28;20133;-80
2023/08/15 08:27:23;;;;;;;14.20;11.52;;;20.90;99.90;;;;;;4973489;28;20046;-80
2023/08/15 08:29:54;;;;;;;13.13;11.70;;;21.40;99.90;;;;;;4976086;28;20047;-79
2023/08/15 08:32:19;;;;;;;10.30;9.23;;;22.20;99.90;;;;;;4976943;28;20042;-79
2023/08/15 08:34:45;;;;;;;9.90;7.13;;;23.00;99.90;;;;;;4960714;28;20472;-80
2023/08/15 08:37:16;;;;;;;9.13;6.68;;;23.40;99.90;;;;;;4961065;28;20042;-81
2023/08/15 08:39:47;;;;;;;8.32;6.00;;;23.60;99.90;;;;;;4971326;28;20047;-80
2023/08/15 08:42:19;;;;;;;8.30;5.93;;;23.90;99.90;;;;;;4958893;28;20401;-79
2023/08/15 08:44:46;;;;;;;9.10;5.28;;;24.50;99.90;;;;;;4961170;28;20042;-80
2023/08/15 08:47:12;;;;;;;10.15;5.25;;;25.00;99.90;;;;;;4960815;28;20050;-80
2023/08/15 08:49:46;;;;;;;7.30;5.50;;;25.40;99.90;;;;;;4969304;28;20035;-79
2023/08/15 08:52:13;;;;;;;8.30;5.45;;;25.70;99.90;;;;;;4956411;28;20034;-80
2023/08/15 08:54:44;;;;;;;8.25;4.00;;;26.10;99.90;;;;;;4977812;28;20086;-79
2023/08/15 08:57:13;;;;;;;7.72;3.80;;;26.50;99.90;;;;;;4949150;28;20054;-80
2023/08/15 08:59:42;;;;;;;9.10;3.75;;;27.10;99.90;;;;;;4961974;28;20107;-80
2023/08/15 09:02:16;;;;;;;9.48;3.60;;;27.60;99.90;;;;;;4961157;28;20042;-80
2023/08/15 09:04:45;;;;;;;7.43;3.30;;;27.80;99.90;;;;;;4956892;28;20121;-80
2023/08/15 09:07:18;;;;;;;7.97;3.20;;;27.90;99.90;;;;;;4973286;28;20121;-80
2023/08/15 09:09:46;;;;;;;6.40;2.95;;;28.20;99.90;;;;;;4965225;28;20058;-80
2023/08/15 09:12:38;;;;;;;6.65;2.90;;;28.20;99.90;;;;;;4964863;28;20045;-80
2023/08/15 09:15:11;;;;;;;7.43;3.13;;;27.60;99.90;;;;;;4981626;28;20042;-80
2023/08/15 09:17:43;;;;;;;7.05;2.90;;;26.90;99.90;;;;;;4965333;28;20038;-80
2023/08/15 09:20:13;;;;;;;;;;;26.20;99.90;;;;;;4960684;28;20476;-80
2023/08/15 09:22:46;;;;;;;6.35;2.85;;;25.50;99.90;;;;;;4965432;28;19921;-79
2023/08/15 09:25:19;;;;;;;6.32;2.83;;;25.00;99.90;;;;;;4966230;28;20398;-80
2023/08/15 09:27:45;;;;;;;6.60;3.13;;;24.70;99.90;;;;;;4965752;28;20046;-80
2023/08/15 09:30:21;;;;;;;6.00;2.78;;;24.60;99.90;;;;;;4965034;28;20497;-79
2023/08/15 09:32:47;;;;;;;6.45;2.80;;;24.60;99.90;;;;;;4958841;28;20042;-79
2023/08/15 09:35:16;;;;;;;6.57;3.15;;;24.60;99.90;;;;;;4961357;28;20069;-80
2023/08/15 09:37:47;;;;;;;7.85;3.22;;;24.70;99.90;;;;;;4966085;28;20053;-80
2023/08/15 09:40:33;;;;;;;8.23;2.83;;;25.10;99.90;;;;;;4965718;28;20129;-80
2023/08/15 09:42:59;;;;;;;9.02;3.70;;;25.50;99.90;;;;;;4960130;28;20046;-80
2023/08/15 09:45:28;;;;;;;6.72;2.97;;;25.70;99.90;;;;;;4959067;28;20092;-79
2023/08/15 09:47:54;;;;;;;8.15;3.83;;;25.40;99.90;;;;;;4974312;28;20421;-80
2023/08/15 09:50:26;;;;;;;7.68;3.95;;;25.10;99.90;;;;;;4982604;28;20185;-80
2023/08/15 09:52:56;;;;;;;8.70;3.60;;;24.70;99.90;;;;;;4966484;28;20045;-79
2023/08/15 09:55:22;;;;;;;8.13;4.13;;;24.70;99.90;;;;;;4974094;28;20042;-79
2023/08/15 09:57:50;;;;;;;6.43;3.45;;;24.70;99.90;;;;;;4977538;28;20065;-79
2023/08/15 10:00:18;;;;;;;9.63;3.60;;;24.80;99.90;;;;;;4961291;28;20046;-80
2023/08/15 10:03:00;;;;;;;8.80;3.45;;;24.70;99.90;;;;;;4969508;28;20047;-79
2023/08/15 10:05:36;;;;;;;7.60;3.00;;;24.60;99.90;;;;;;4968175;28;20038;-80
2023/08/15 10:08:02;;;;;;;7.47;3.60;;;25.00;99.90;;;;;;4980030;28;20026;-80
2023/08/15 10:10:30;;;;;;;9.27;3.40;;;25.50;99.90;;;;;;4972803;28;20105;-80
2023/08/15 10:13:01;;;;;;;6.25;2.92;;;26.10;99.90;;;;;;4972513;28;20107;-81
2023/08/15 10:15:33;;;;;;;6.25;3.95;;;26.50;99.90;;;;;;4950242;28;20038;-80
2023/08/15 10:18:18;;;;;;;5.32;2.83;;;26.50;99.90;;;;;;4957512;28;20042;-80
2023/08/15 10:20:54;;;;;;;5.03;2.55;;;26.20;99.90;;;;;;4958406;28;20429;-80
2023/08/15 10:23:41;;;;;;;;;;;;;;;;;;;;;
2023/08/15 10:26:08;;;;;;;10.93;4.03;;;25.60;99.90;;;;;;4981156;28;20053;-80
2023/08/15 10:28:34;;;;;;;6.18;3.33;;;25.40;99.90;;;;;;4951166;28;20039;-79
2023/08/15 10:31:00;;;;;;;7.15;3.60;;;25.20;99.90;;;;;;4980830;28;20046;-80
2023/08/15 10:33:31;;;;;;;8.50;3.63;;;25.20;99.90;;;;;;4980084;28;20125;-80
2023/08/15 10:35:59;;;;;;;5.53;3.08;;;25.10;99.90;;;;;;4964008;28;20038;-79
2023/08/15 10:38:28;;;;;;;8.27;3.88;;;24.80;99.90;;;;;;4963558;28;20045;-79
2023/08/15 10:41:33;;;;;;;7.93;3.83;;;24.60;99.90;;;;;;4964514;28;20046;-80
2023/08/15 10:44:03;;;;;;;10.05;4.60;;;24.20;99.90;;;;;;4958309;28;20069;-80
2023/08/15 10:46:30;;;;;;;7.63;4.28;;;24.00;99.90;;;;;;4962435;28;20038;-80
2023/08/15 10:49:13;;;;;;;9.60;4.60;;;23.90;99.90;;;;;;4962332;28;20042;-79
2023/08/15 10:51:40;;;;;;;9.48;3.90;;;23.90;99.90;;;;;;4973398;28;20046;-79
2023/08/15 10:54:14;;;;;;;8.30;4.40;;;24.10;99.90;;;;;;4975450;28;20398;-80
2023/08/15 10:56:41;;;;;;;6.90;4.05;;;24.30;99.90;;;;;;4961891;28;20042;-79
2023/08/15 10:59:17;;;;;;;7.57;4.53;;;24.70;99.90;;;;;;4963383;28;20042;-79
2023/08/15 11:01:46;;;;;;;8.73;4.80;;;24.90;99.90;;;;;;4958058;28;20082;-80
2023/08/15 11:04:15;;;;;;;10.35;4.65;;;24.90;99.90;;;;;;4954896;28;20049;-79
2023/08/15 11:06:46;;;;;;;8.07;4.50;;;24.90;99.90;;;;;;4952777;28;20409;-80
2023/08/15 11:09:12;;;;;;;9.65;4.95;;;24.80;99.90;;;;;;4958933;28;20110;-79
2023/08/15 11:11:41;;;;;;;7.18;4.10;;;24.80;99.90;;;;;;4967367;28;20068;-80
2023/08/15 11:14:18;;;;;;;7.47;4.10;;;25.20;99.90;;;;;;4959565;28;20089;-80
2023/08/15 11:16:48;;;;;;;6.68;3.88;;;26.00;99.90;;;;;;4965180;28;20046;-79
2023/08/15 11:19:23;;;;;;;7.75;4.47;;;26.50;99.90;;;;;;4965874;28;20056;-79
2023/08/15 11:21:50;;;;;;;10.18;5.50;;;26.70;99.90;;;;;;4951766;28;20034;-80
2023/08/15 11:24:16;;;;;;;8.60;3.85;;;26.50;99.90;;;;;;4967355;28;20057;-80
2023/08/15 11:26:42;;;;;;;10.13;4.22;;;26.20;99.90;;;;;;4956857;28;20046;-79
2023/08/15 11:29:12;;;;;;;8.98;4.18;;;26.10;99.90;;;;;;4957752;28;20042;-79
2023/08/15 11:31:38;;;;;;;9.25;4.47;;;25.80;99.90;;;;;;4952967;28;20497;-80
2023/08/15 11:34:17;;;;;;;8.45;4.40;;;25.70;99.90;;;;;;4940117;28;20419;-78
2023/08/15 11:36:52;;;;;;;8.52;4.72;;;25.90;99.90;;;;;;4941041;28;20066;-80
2023/08/15 11:39:28;;;;;;;10.18;4.90;;;26.10;99.90;;;;;;4973269;28;20062;-78
2023/08/15 11:42:04;;;;;;;8.85;4.78;;;26.10;99.90;;;;;;4961086;28;20498;-80
2023/08/15 11:44:49;;;;;;;10.65;5.50;;;26.10;99.90;;;;;;4969426;28;20038;-80
2023/08/15 11:47:29;;;;;;;7.32;4.50;;;26.00;99.90;;;;;;4957553;28;20612;-79
2023/08/15 11:50:00;;;;;;;12.70;4.80;;;26.30;99.90;;;;;;4971697;28;20042;-79
2023/08/15 11:52:34;;;;;;;8.75;4.68;;;26.70;99.90;;;;;;4954922;28;20460;-80
2023/08/15 11:55:07;;;;;;;8.48;5.90;;;26.80;99.90;;;;;;4959481;28;20042;-79
2023/08/15 11:58:00;;;;;;;7.18;4.90;;;26.60;99.90;;;;;;4972171;28;20466;-80
2023/08/15 12:00:41;;;;;;;10.68;4.22;;;26.30;99.90;;;;;;4973797;28;20057;-79
2023/08/15 12:03:12;;;;;;;6.88;4.43;;;25.80;99.90;;;;;;4941169;28;20477;-80
2023/08/15 12:05:47;;;;;;;7.90;3.90;;;25.40;99.90;;;;;;4941729;28;20142;-79
2023/08/15 12:08:29;;;;;;;8.00;3.45;;;25.20;99.90;;;;;;4941348;28;20117;-79
2023/08/15 12:11:15;;;;;;;9.10;4.30;;;25.40;99.90;;;;;;4959169;28;20405;-79
2023/08/15 12:13:51;;;;;;;7.78;3.78;;;25.60;99.90;;;;;;4968236;28;20515;-80
2023/08/15 12:16:36;;;;;;;8.18;4.05;;;25.40;99.90;;;;;;4962499;28;20065;-79
2023/08/15 12:19:10;;;;;;;8.88;4.63;;;25.30;99.90;;;;;;4977284;28;20101;-80
2023/08/15 12:21:41;;;;;;;5.97;4.30;;;25.60;99.90;;;;;;4960966;28;20047;-79
2023/08/15 12:24:10;;;;;;;8.30;4.47;;;26.10;99.90;;;;;;4956889;28;20054;-79
2023/08/15 12:26:39;;;;;;;7.40;4.35;;;26.80;99.90;;;;;;4966274;28;20517;-80
2023/08/15 12:29:08;;;;;;;9.55;4.18;;;27.40;99.90;;;;;;4961052;28;20038;-80
2023/08/15 12:31:40;;;;;;;7.30;4.43;;;27.90;99.90;;;;;;4958035;28;20054;-79
2023/08/15 12:34:28;;;;;;;8.60;4.90;;;28.30;99.90;;;;;;4961312;28;20085;-80
2023/08/15 12:37:00;;;;;;;7.45;4.72;;;28.60;99.90;;;;;;4980993;28;20034;-80
2023/08/15 12:39:52;;;;;;;7.10;5.18;;;28.70;99.90;;;;;;4959727;28;20038;-80
2023/08/15 12:42:31;;;;;;;7.32;5.13;;;28.70;99.90;;;;;;4957218;29;20419;-80
2023/08/15 12:45:09;;;;;;;6.50;4.35;;;28.50;99.90;;;;;;4990851;28;20046;-80
2023/08/15 12:47:40;;;;;;;6.95;4.57;;;28.30;99.90;;;;;;4948935;28;20076;-79